Time;durP1;ratioP1;P1;durP2;ratioP2;P2;SDS_P1;SDS_P2;PMS_P1;PMS_P2;Temp;Humidity;BMP_temperature;BMP_pressure;BME280_temperature;BME280_humidity;BME280_pressure;Samples;Min_cycle;Max_cycle;Signal;HPM_P1;HPM_P2
2022/07/25 00:01:33;;;;;;;7.37;5.73;;;19.60;85.90;;;;;;5045540;28;21000;-48
2022/07/25 00:04:01;;;;;;;8.40;6.20;;;19.50;86.60;;;;;;5042212;28;20484;-47
2022/07/25 00:06:28;;;;;;;9.90;7.83;;;19.50;85.00;;;;;;5041651;28;20479;-48
2022/07/25 00:08:55;;;;;;;7.77;6.93;;;19.50;85.90;;;;;;5039498;28;21479;-48
2022/07/25 00:11:22;;;;;;;9.40;7.17;;;19.50;85.90;;;;;;5050488;28;20969;-48
2022/07/25 00:13:49;;;;;;;8.60;6.40;;;19.40;86.00;;;;;;5056660;28;20535;-48
2022/07/25 00:16:16;;;;;;;10.00;6.77;;;19.50;86.00;;;;;;5068076;28;20544;-48
2022/07/25 00:18:43;;;;;;;9.07;6.33;;;19.50;85.90;;;;;;5045334;28;21255;-48
2022/07/25 00:21:11;;;;;;;10.23;7.00;;;19.50;86.40;;;;;;5046010;28;20488;-48
2022/07/25 00:23:38;;;;;;;9.40;6.77;;;19.50;86.60;;;;;;5043521;28;20477;-48
2022/07/25 00:26:05;;;;;;;9.27;7.53;;;19.50;86.50;;;;;;5045277;28;20488;-48
2022/07/25 00:28:32;;;;;;;8.80;6.00;;;19.50;85.90;;;;;;5031781;28;20474;-48
2022/07/25 00:30:59;;;;;;;7.70;6.20;;;19.50;85.70;;;;;;5042451;28;20478;-48
2022/07/25 00:33:25;;;;;;;9.13;6.70;;;19.40;85.80;;;;;;5040194;28;20574;-48
2022/07/25 00:35:52;;;;;;;8.13;6.10;;;19.40;86.20;;;;;;5042558;28;20490;-48
2022/07/25 00:38:20;;;;;;;15.30;7.10;;;19.30;86.10;;;;;;5056275;28;20485;-48
2022/07/25 00:40:47;;;;;;;11.10;7.33;;;19.20;86.50;;;;;;5051290;28;20490;-50
2022/07/25 00:43:14;;;;;;;14.27;7.43;;;19.10;86.50;;;;;;5044621;28;20731;-48
2022/07/25 00:45:40;;;;;;;8.30;6.67;;;19.10;86.80;;;;;;5044310;28;20483;-48
2022/07/25 00:48:08;;;;;;;6.83;5.50;;;19.00;86.90;;;;;;5037306;28;20491;-48
2022/07/25 00:50:35;;;;;;;9.30;7.10;;;19.00;87.50;;;;;;5027333;28;20554;-48
2022/07/25 00:53:02;;;;;;;9.97;7.20;;;19.00;88.10;;;;;;5053076;28;20487;-48
2022/07/25 00:55:31;;;;;;;8.40;6.07;;;19.00;87.80;;;;;;5034480;28;20575;-48
2022/07/25 00:57:58;;;;;;;7.27;6.50;;;18.70;88.70;;;;;;5036256;28;21007;-47
2022/07/25 01:00:24;;;;;;;10.93;7.20;;;18.60;89.00;;;;;;5040642;28;20491;-48
2022/07/25 01:02:51;;;;;;;12.00;7.77;;;18.60;89.40;;;;;;5039759;28;20536;-48
2022/07/25 01:05:18;;;;;;;11.80;7.30;;;18.50;90.20;;;;;;5034184;28;20483;-48
2022/07/25 01:07:46;;;;;;;8.77;6.20;;;18.40;90.20;;;;;;5037974;28;21803;-48
2022/07/25 01:10:13;;;;;;;9.83;8.00;;;18.40;90.00;;;;;;5039034;28;20495;-48
2022/07/25 01:12:53;;;;;;;10.17;7.50;;;18.50;89.70;;;;;;5038441;28;20498;-47
2022/07/25 01:15:21;;;;;;;12.40;7.47;;;18.50;90.20;;;;;;5031941;28;20490;-47
2022/07/25 01:17:48;;;;;;;9.50;7.00;;;18.50;90.50;;;;;;5045116;28;20481;-47
2022/07/25 01:20:18;;;;;;;8.70;6.57;;;18.40;90.00;;;;;;5039385;28;20491;-48
2022/07/25 01:22:45;;;;;;;9.67;6.33;;;18.50;90.00;;;;;;5038375;28;20483;-47
2022/07/25 01:25:12;;;;;;;8.37;6.33;;;18.50;89.40;;;;;;5041535;28;21084;-48
2022/07/25 01:27:39;;;;;;;8.23;6.80;;;18.50;88.90;;;;;;5043034;28;20495;-47
2022/07/25 01:30:08;;;;;;;8.80;7.20;;;18.50;89.40;;;;;;5042538;28;20481;-47
2022/07/25 01:32:35;;;;;;;13.27;7.17;;;18.60;88.40;;;;;;5041488;28;20479;-47
2022/07/25 01:35:02;;;;;;;8.60;6.67;;;18.60;88.40;;;;;;5042712;28;20485;-48
2022/07/25 01:37:30;;;;;;;9.77;7.40;;;18.60;89.00;;;;;;5043223;28;20841;-48
2022/07/25 01:39:57;;;;;;;10.23;7.47;;;18.60;88.80;;;;;;5041277;28;20480;-48
2022/07/25 01:42:24;;;;;;;9.80;6.77;;;18.60;89.00;;;;;;5042427;28;20480;-48
2022/07/25 01:44:51;;;;;;;11.00;6.73;;;18.60;89.50;;;;;;5041396;28;21016;-47
2022/07/25 01:47:17;;;;;;;7.80;7.00;;;18.50;88.90;;;;;;5040397;28;20476;-48
2022/07/25 01:49:45;;;;;;;9.07;7.20;;;18.30;90.10;;;;;;5042804;28;20472;-48
2022/07/25 01:52:11;;;;;;;8.67;6.87;;;18.30;90.50;;;;;;5040583;28;20886;-47
2022/07/25 01:54:40;;;;;;;10.23;7.00;;;18.20;90.40;;;;;;5039487;28;20489;-48
2022/07/25 01:57:08;;;;;;;9.00;7.07;;;18.20;90.40;;;;;;5043233;28;20486;-47
2022/07/25 01:59:37;;;;;;;8.73;6.57;;;18.10;90.20;;;;;;5042175;28;20483;-48
2022/07/25 02:02:04;;;;;;;11.90;7.40;;;18.10;90.30;;;;;;5042923;28;20590;-47
2022/07/25 02:04:31;;;;;;;9.70;7.13;;;18.00;90.30;;;;;;5038316;28;20871;-47
2022/07/25 02:06:58;;;;;;;9.80;6.63;;;18.00;90.40;;;;;;5041286;28;20475;-48
2022/07/25 02:09:25;;;;;;;8.33;6.80;;;17.90;90.90;;;;;;5042279;28;20506;-47
2022/07/25 02:11:53;;;;;;;9.73;7.43;;;17.80;91.20;;;;;;5031886;28;20977;-47
2022/07/25 02:14:20;;;;;;;9.80;6.57;;;17.70;91.40;;;;;;5040771;28;20494;-47
2022/07/25 02:16:47;;;;;;;8.23;6.93;;;17.70;91.30;;;;;;5041258;28;21038;-49
2022/07/25 02:19:13;;;;;;;10.10;7.20;;;17.80;91.40;;;;;;5039890;28;21162;-47
2022/07/25 02:21:40;;;;;;;9.70;6.97;;;17.80;91.10;;;;;;5041774;28;21251;-48
2022/07/25 02:24:07;;;;;;;13.03;7.33;;;17.90;91.10;;;;;;5043625;28;20479;-48
2022/07/25 02:26:34;;;;;;;10.00;7.80;;;17.90;91.30;;;;;;5058385;28;20470;-48
2022/07/25 02:29:02;;;;;;;9.00;6.50;;;18.00;90.70;;;;;;5041683;28;20597;-48
2022/07/25 02:31:29;;;;;;;8.97;7.10;;;18.00;90.90;;;;;;5042133;28;20486;-48
2022/07/25 02:33:56;;;;;;;10.43;6.87;;;18.00;90.60;;;;;;5039685;28;20506;-47
2022/07/25 02:36:23;;;;;;;10.10;6.23;;;17.90;90.40;;;;;;5040677;28;20475;-47
2022/07/25 02:38:50;;;;;;;8.43;7.53;;;17.80;91.10;;;;;;5042968;28;20487;-47
2022/07/25 02:41:16;;;;;;;7.33;6.37;;;17.70;91.50;;;;;;5040975;28;20480;-48
2022/07/25 02:43:43;;;;;;;8.80;7.20;;;17.60;91.90;;;;;;5039624;28;20480;-48
2022/07/25 02:46:11;;;;;;;10.47;8.20;;;17.60;91.80;;;;;;5039807;28;20502;-47
2022/07/25 02:48:38;;;;;;;9.50;6.60;;;17.60;91.50;;;;;;5042968;28;20483;-47
2022/07/25 02:51:05;;;;;;;8.33;6.60;;;17.70;91.60;;;;;;5044793;28;20483;-47
2022/07/25 02:53:32;;;;;;;8.30;6.57;;;17.70;91.40;;;;;;5039641;28;21096;-47
2022/07/25 02:55:58;;;;;;;8.97;6.97;;;17.60;91.20;;;;;;5041886;28;20705;-47
2022/07/25 02:58:25;;;;;;;8.90;6.50;;;17.60;91.30;;;;;;5040873;28;20484;-47
2022/07/25 03:00:52;;;;;;;8.17;6.23;;;17.60;91.30;;;;;;5036380;28;20491;-47
2022/07/25 03:03:20;;;;;;;9.50;6.67;;;17.60;91.10;;;;;;5039597;28;20492;-47
2022/07/25 03:05:47;;;;;;;7.47;6.67;;;17.50;91.60;;;;;;5040704;28;20487;-47
2022/07/25 03:08:13;;;;;;;10.83;8.03;;;17.40;91.90;;;;;;5039922;28;20982;-46
2022/07/25 03:10:40;;;;;;;12.93;6.90;;;17.40;91.70;;;;;;5049068;28;20853;-47
2022/07/25 03:13:07;;;;;;;10.10;7.97;;;17.40;92.00;;;;;;5053828;28;20487;-47
2022/07/25 03:15:33;;;;;;;10.37;7.10;;;17.40;91.40;;;;;;5044834;28;20947;-47
2022/07/25 03:18:00;;;;;;;8.73;6.87;;;17.40;91.50;;;;;;5035847;28;20478;-47
2022/07/25 03:20:28;;;;;;;8.43;7.20;;;17.40;91.90;;;;;;5038237;28;20484;-47
2022/07/25 03:22:55;;;;;;;10.47;6.93;;;17.40;91.50;;;;;;5036876;28;21281;-47
2022/07/25 03:25:21;;;;;;;7.50;6.23;;;17.40;91.20;;;;;;5035598;28;21122;-47
2022/07/25 03:27:49;;;;;;;9.13;6.93;;;17.40;91.40;;;;;;5039007;28;20514;-47
2022/07/25 03:30:15;;;;;;;7.43;6.47;;;17.40;91.20;;;;;;5038568;28;20507;-47
2022/07/25 03:32:42;;;;;;;6.67;5.97;;;17.50;91.20;;;;;;5040995;28;20480;-47
2022/07/25 03:35:09;;;;;;;6.90;6.17;;;17.40;91.60;;;;;;5039208;28;20997;-46
2022/07/25 03:37:37;;;;;;;14.30;7.00;;;17.40;91.20;;;;;;5028472;28;20471;-47
2022/07/25 03:40:05;;;;;;;11.37;7.50;;;17.40;91.10;;;;;;5040307;28;20484;-47
2022/07/25 03:42:32;;;;;;;8.83;6.90;;;17.40;91.40;;;;;;5039860;28;20476;-48
2022/07/25 03:44:59;;;;;;;13.47;7.00;;;17.30;91.20;;;;;;5037781;28;20479;-47
2022/07/25 03:47:25;;;;;;;9.73;7.67;;;17.30;91.30;;;;;;5039349;28;20482;-47
2022/07/25 03:49:52;;;;;;;9.83;7.30;;;17.30;91.60;;;;;;5040565;28;20480;-47
2022/07/25 03:52:19;;;;;;;39.00;8.83;;;17.20;91.40;;;;;;5039734;28;20997;-47
2022/07/25 03:54:47;;;;;;;7.40;6.30;;;17.20;91.70;;;;;;5038113;28;20832;-47
2022/07/25 03:57:14;;;;;;;14.40;7.60;;;17.10;92.00;;;;;;5037244;28;20797;-47
2022/07/25 03:59:40;;;;;;;8.07;6.50;;;16.90;92.10;;;;;;5048165;28;20484;-47
2022/07/25 04:02:07;;;;;;;9.60;7.43;;;16.80;92.50;;;;;;5027319;28;20479;-47
2022/07/25 04:04:34;;;;;;;7.93;6.40;;;16.80;92.80;;;;;;5060198;28;20475;-47
2022/07/25 04:07:01;;;;;;;9.40;7.37;;;16.80;92.20;;;;;;5038874;28;20957;-47
2022/07/25 04:09:27;;;;;;;12.03;7.57;;;16.90;92.50;;;;;;5045019;28;21021;-47
2022/07/25 04:11:55;;;;;;;9.50;7.27;;;16.70;93.00;;;;;;5040367;28;21324;-47
2022/07/25 04:14:22;;;;;;;14.93;6.77;;;16.60;93.60;;;;;;5037568;28;20477;-47
2022/07/25 04:16:49;;;;;;;12.00;7.70;;;16.50;93.80;;;;;;5038144;28;20484;-47
2022/07/25 04:19:16;;;;;;;10.87;7.07;;;16.60;93.70;;;;;;5045261;28;20487;-47
2022/07/25 04:21:42;;;;;;;9.60;7.00;;;16.50;93.30;;;;;;5038451;28;20475;-47
2022/07/25 04:24:09;;;;;;;11.23;6.90;;;16.50;93.50;;;;;;5038174;28;20479;-47
2022/07/25 04:26:36;;;;;;;9.13;6.50;;;16.60;93.40;;;;;;5038224;28;20476;-47
2022/07/25 04:29:04;;;;;;;12.80;8.10;;;16.60;93.50;;;;;;5040446;28;20499;-47
2022/07/25 04:31:30;;;;;;;9.80;7.30;;;16.70;93.50;;;;;;5039310;28;20475;-47
2022/07/25 04:33:57;;;;;;;11.00;6.80;;;16.70;93.20;;;;;;5036513;28;20487;-47
2022/07/25 04:36:25;;;;;;;9.30;7.20;;;16.80;93.00;;;;;;5044028;28;20494;-47
2022/07/25 04:38:52;;;;;;;8.40;6.53;;;16.80;92.50;;;;;;5018326;28;20963;-47
2022/07/25 04:41:18;;;;;;;10.67;7.53;;;16.90;92.70;;;;;;5039012;28;20488;-47
2022/07/25 04:43:45;;;;;;;11.60;7.83;;;17.00;92.70;;;;;;5037548;28;20475;-47
2022/07/25 04:46:17;;;;;;;10.73;7.50;;;17.00;92.50;;;;;;5040466;28;20476;-47
2022/07/25 04:48:44;;;;;;;9.83;7.67;;;17.10;92.70;;;;;;5040197;28;20555;-47
2022/07/25 04:51:10;;;;;;;11.73;8.27;;;17.20;92.70;;;;;;5039519;28;20489;-47
2022/07/25 04:53:37;;;;;;;10.93;7.77;;;17.30;92.90;;;;;;5037718;28;20487;-47
2022/07/25 04:56:05;;;;;;;13.10;8.17;;;17.30;92.90;;;;;;5037806;28;20486;-47
2022/07/25 04:58:32;;;;;;;11.00;8.90;;;17.40;92.70;;;;;;5041546;28;20499;-47
2022/07/25 05:00:59;;;;;;;10.17;8.70;;;17.40;93.20;;;;;;5038834;28;20484;-47
2022/07/25 05:03:27;;;;;;;13.43;8.40;;;17.30;93.80;;;;;;5037746;28;20823;-48
2022/07/25 05:05:53;;;;;;;12.53;9.20;;;17.30;94.20;;;;;;5039447;28;20479;-50
2022/07/25 05:08:20;;;;;;;14.10;9.83;;;17.30;94.40;;;;;;5039195;28;20484;-47
2022/07/25 05:10:47;;;;;;;13.53;8.60;;;17.30;94.60;;;;;;5038645;28;20487;-47
2022/07/25 05:13:13;;;;;;;14.67;9.50;;;17.30;94.70;;;;;;5037266;28;20634;-47
2022/07/25 05:15:40;;;;;;;12.00;9.10;;;17.30;94.90;;;;;;5036677;28;20487;-47
2022/07/25 05:18:07;;;;;;;11.90;9.27;;;17.40;94.70;;;;;;5037979;28;20487;-47
2022/07/25 05:20:35;;;;;;;14.57;9.33;;;17.40;94.70;;;;;;5036404;28;20488;-47
2022/07/25 05:23:02;;;;;;;13.03;9.93;;;17.60;95.20;;;;;;5038208;28;20478;-48
2022/07/25 05:25:29;;;;;;;16.20;9.93;;;17.70;95.40;;;;;;5034860;28;20566;-47
2022/07/25 05:27:57;;;;;;;10.50;9.20;;;17.80;94.80;;;;;;5038006;28;20563;-48
2022/07/25 05:30:24;;;;;;;13.97;9.67;;;18.00;94.70;;;;;;5038936;28;20479;-48
2022/07/25 05:32:50;;;;;;;11.00;9.03;;;18.10;94.70;;;;;;5034447;28;20550;-47
2022/07/25 05:35:17;;;;;;;10.07;8.10;;;18.30;94.60;;;;;;5037537;28;20484;-47
2022/07/25 05:37:45;;;;;;;10.43;8.37;;;18.30;95.30;;;;;;5038410;28;20966;-47
2022/07/25 05:40:12;;;;;;;13.33;9.70;;;18.50;94.80;;;;;;5037783;28;20476;-47
2022/07/25 05:42:39;;;;;;;12.80;9.93;;;18.70;94.70;;;;;;5037877;28;20578;-47
2022/07/25 05:45:07;;;;;;;11.40;9.40;;;18.70;94.90;;;;;;5040902;28;20512;-47
2022/07/25 05:47:34;;;;;;;12.60;9.23;;;18.90;95.00;;;;;;5040299;28;21000;-47
2022/07/25 05:50:01;;;;;;;15.00;8.90;;;19.20;94.80;;;;;;5036926;28;20480;-47
2022/07/25 05:52:27;;;;;;;13.47;11.40;;;19.30;94.80;;;;;;5033857;28;20537;-48
2022/07/25 05:54:55;;;;;;;12.13;9.87;;;19.40;94.70;;;;;;5038214;28;20477;-47
2022/07/25 05:57:22;;;;;;;13.17;10.30;;;19.50;95.10;;;;;;5037296;28;21036;-47
2022/07/25 05:59:49;;;;;;;12.43;9.23;;;19.70;94.80;;;;;;5033533;28;20902;-47
2022/07/25 06:02:16;;;;;;;13.63;8.00;;;19.90;94.50;;;;;;5059834;28;20486;-47
2022/07/25 06:04:42;;;;;;;16.07;9.63;;;20.10;94.30;;;;;;5040900;28;20488;-47
2022/07/25 06:07:09;;;;;;;12.07;9.63;;;20.30;94.10;;;;;;5038447;28;20484;-47
2022/07/25 06:09:36;;;;;;;13.87;8.47;;;20.40;94.80;;;;;;5035064;28;20491;-47
2022/07/25 06:12:04;;;;;;;14.30;10.80;;;20.50;94.00;;;;;;5052908;28;21161;-48
2022/07/25 06:14:31;;;;;;;12.53;9.80;;;20.80;94.00;;;;;;5039358;28;20483;-49
2022/07/25 06:16:58;;;;;;;10.23;8.87;;;20.90;93.80;;;;;;5043289;28;21358;-48
2022/07/25 06:19:25;;;;;;;10.10;8.50;;;21.20;92.50;;;;;;5037791;28;20483;-48
2022/07/25 06:21:52;;;;;;;10.70;9.60;;;21.40;92.20;;;;;;5042194;28;20961;-48
2022/07/25 06:24:18;;;;;;;11.23;9.90;;;21.70;92.10;;;;;;5041062;28;20973;-48
2022/07/25 06:26:45;;;;;;;10.73;9.10;;;21.90;92.60;;;;;;5042924;28;20564;-48
2022/07/25 06:29:13;;;;;;;11.13;8.67;;;22.10;92.60;;;;;;5041257;28;20487;-48
2022/07/25 06:31:40;;;;;;;12.13;9.47;;;22.50;92.30;;;;;;5045231;28;20491;-48
2022/07/25 06:34:07;;;;;;;12.53;9.40;;;22.80;91.20;;;;;;5040423;28;20495;-48
2022/07/25 06:36:34;;;;;;;11.07;8.83;;;23.20;91.20;;;;;;5039143;28;20479;-49
2022/07/25 06:39:01;;;;;;;9.93;8.83;;;23.30;91.20;;;;;;5043075;28;20480;-48
2022/07/25 06:41:28;;;;;;;11.10;9.90;;;23.50;91.10;;;;;;5041331;28;20834;-49
2022/07/25 06:43:54;;;;;;;10.93;9.03;;;23.70;91.20;;;;;;5039969;28;20569;-48
2022/07/25 06:46:22;;;;;;;11.83;9.50;;;24.00;90.60;;;;;;5042770;28;20944;-48
2022/07/25 06:48:49;;;;;;;14.40;10.27;;;24.20;90.70;;;;;;5040317;28;20890;-48
2022/07/25 06:51:16;;;;;;;10.20;9.20;;;24.60;90.00;;;;;;5041358;28;20491;-48
2022/07/25 06:53:43;;;;;;;11.37;8.53;;;24.90;90.20;;;;;;5039234;28;20860;-48
2022/07/25 06:56:09;;;;;;;12.73;9.63;;;25.20;87.70;;;;;;5029171;28;20471;-48
2022/07/25 06:58:36;;;;;;;11.13;9.17;;;25.50;87.20;;;;;;5054325;28;20480;-48
2022/07/25 07:01:03;;;;;;;9.80;8.50;;;25.70;87.00;;;;;;5042885;28;20472;-48
2022/07/25 07:03:36;;;;;;;11.53;9.00;;;26.10;84.60;;;;;;5037210;28;21143;-49
2022/07/25 07:06:03;;;;;;;9.70;8.70;;;26.20;85.90;;;;;;5025585;28;20494;-48
2022/07/25 07:08:30;;;;;;;10.33;8.83;;;26.40;84.90;;;;;;5036791;28;20502;-49
2022/07/25 07:10:57;;;;;;;8.23;7.40;;;26.60;83.60;;;;;;5040646;28;20479;-48
2022/07/25 07:13:23;;;;;;;10.20;9.20;;;26.70;82.90;;;;;;5037038;28;20483;-48
2022/07/25 07:15:50;;;;;;;12.17;9.40;;;27.20;79.20;;;;;;5039880;28;20543;-48
2022/07/25 07:18:18;;;;;;;12.93;9.87;;;27.50;78.00;;;;;;5040079;28;20491;-49
2022/07/25 07:20:46;;;;;;;12.10;10.27;;;27.60;78.20;;;;;;5043176;28;20479;-49
2022/07/25 07:23:14;;;;;;;11.10;10.03;;;27.90;76.90;;;;;;5041253;28;20904;-48
2022/07/25 07:25:40;;;;;;;10.23;9.23;;;28.20;75.60;;;;;;5040482;28;20997;-49
2022/07/25 07:28:07;;;;;;;12.30;11.10;;;28.40;74.00;;;;;;5040985;28;20475;-49
2022/07/25 07:30:34;;;;;;;10.90;9.50;;;28.60;75.20;;;;;;5043258;28;20486;-49
2022/07/25 07:33:01;;;;;;;9.77;8.77;;;28.80;74.50;;;;;;5041426;28;20479;-48
2022/07/25 07:35:28;;;;;;;12.50;11.30;;;28.80;72.80;;;;;;5037592;28;20980;-50
2022/07/25 07:37:56;;;;;;;12.37;10.70;;;29.00;74.30;;;;;;5038153;28;20486;-48
2022/07/25 07:40:25;;;;;;;11.00;9.90;;;29.00;73.10;;;;;;5053681;28;20625;-49
2022/07/25 07:42:52;;;;;;;10.77;9.67;;;29.10;73.70;;;;;;5039277;28;20530;-49
2022/07/25 07:45:20;;;;;;;12.67;11.23;;;29.30;72.50;;;;;;5037979;28;20476;-50
2022/07/25 07:47:48;;;;;;;18.47;10.40;;;29.50;73.40;;;;;;5038045;28;20882;-49
2022/07/25 07:50:17;;;;;;;12.60;11.17;;;29.40;71.40;;;;;;5030670;28;20479;-51
2022/07/25 07:52:44;;;;;;;12.40;10.87;;;29.40;71.30;;;;;;5045087;28;20894;-55
2022/07/25 07:57:59;;;;;;;11.90;9.90;;;29.50;72.30;;;;;;5021250;28;20503;-49
2022/07/25 08:00:29;;;;;;;11.90;10.77;;;29.50;71.50;;;;;;5038728;28;21062;-50
2022/07/25 08:02:55;;;;;;;10.77;9.77;;;29.60;70.90;;;;;;5043280;28;20835;-50
2022/07/25 08:05:23;;;;;;;11.90;10.20;;;29.60;71.40;;;;;;5043382;28;20474;-50
2022/07/25 08:07:51;;;;;;;10.00;9.10;;;29.70;70.60;;;;;;5036096;28;20475;-50
2022/07/25 08:10:21;;;;;;;10.80;9.70;;;29.80;70.70;;;;;;5045324;28;20531;-49
2022/07/25 08:12:48;;;;;;;11.90;9.97;;;30.00;69.70;;;;;;5044303;28;20474;-49
2022/07/25 08:15:16;;;;;;;12.30;9.50;;;30.10;69.60;;;;;;5037134;28;20499;-52
2022/07/25 08:17:43;;;;;;;10.30;9.30;;;30.30;69.60;;;;;;5046488;28;20540;-51
2022/07/25 08:20:11;;;;;;;10.20;9.20;;;30.40;67.80;;;;;;5039865;28;20518;-48
2022/07/25 08:22:40;;;;;;;11.00;9.90;;;30.40;67.50;;;;;;5036200;28;20561;-50
2022/07/25 08:25:09;;;;;;;10.50;9.50;;;30.70;68.00;;;;;;5038226;28;20479;-50
2022/07/25 08:27:37;;;;;;;9.60;8.70;;;30.80;68.70;;;;;;5034996;28;20480;-50
2022/07/25 08:30:05;;;;;;;11.30;9.10;;;30.90;66.50;;;;;;5038500;28;20476;-50
2022/07/25 08:32:32;;;;;;;10.23;9.13;;;31.20;67.80;;;;;;5029901;28;20484;-50
2022/07/25 08:35:00;;;;;;;9.60;8.70;;;31.40;67.40;;;;;;5040802;28;20444;-50
2022/07/25 08:37:28;;;;;;;10.30;9.40;;;31.40;68.10;;;;;;5037058;28;20498;-50
2022/07/25 08:39:55;;;;;;;10.93;9.87;;;31.40;66.60;;;;;;5033005;28;21028;-50
2022/07/25 08:42:22;;;;;;;11.17;10.03;;;31.60;66.00;;;;;;5032173;28;20484;-51
2022/07/25 08:45:02;;;;;;;10.90;9.90;;;31.70;65.30;;;;;;5050401;28;20484;-51
2022/07/25 08:47:30;;;;;;;10.30;9.20;;;31.90;65.80;;;;;;5038582;28;20483;-50
2022/07/25 08:49:57;;;;;;;9.97;8.43;;;32.00;65.00;;;;;;5035291;28;21126;-50
2022/07/25 08:52:24;;;;;;;10.77;9.77;;;32.00;63.90;;;;;;5045369;28;21046;-51
2022/07/25 08:54:51;;;;;;;9.70;8.70;;;32.20;65.80;;;;;;5036351;28;20472;-52
2022/07/25 08:57:18;;;;;;;10.40;9.30;;;32.40;65.20;;;;;;5034311;28;21075;-51
2022/07/25 08:59:45;;;;;;;12.43;11.20;;;32.40;63.10;;;;;;5044427;28;20468;-51
2022/07/25 09:02:14;;;;;;;10.47;9.47;;;32.30;64.30;;;;;;5039316;28;20472;-51
2022/07/25 09:04:42;;;;;;;11.40;9.40;;;32.20;63.30;;;;;;5035970;28;20464;-50
2022/07/25 09:07:09;;;;;;;10.00;9.10;;;31.90;63.20;;;;;;5039388;28;20454;-50
2022/07/25 09:09:37;;;;;;;9.13;8.30;;;31.90;62.80;;;;;;5040297;28;20562;-50
2022/07/25 09:12:05;;;;;;;10.10;8.93;;;32.10;63.30;;;;;;5039620;28;20993;-50
2022/07/25 09:14:41;;;;;;;11.43;8.43;;;32.40;63.70;;;;;;5035663;28;20537;-51
2022/07/25 09:17:08;;;;;;;10.03;9.17;;;32.50;62.70;;;;;;5034980;28;20574;-50
2022/07/25 09:19:36;;;;;;;10.67;9.73;;;32.60;64.20;;;;;;5043624;28;20472;-51
2022/07/25 09:22:05;;;;;;;10.10;9.00;;;32.80;63.20;;;;;;5037099;28;20488;-50
2022/07/25 09:24:33;;;;;;;8.67;7.87;;;32.80;62.40;;;;;;5033143;28;20443;-50
2022/07/25 09:27:01;;;;;;;12.60;9.60;;;32.70;60.60;;;;;;5041045;28;21519;-52
2022/07/25 09:29:29;;;;;;;13.20;8.20;;;32.70;61.60;;;;;;5039609;28;21022;-51
2022/07/25 09:31:58;;;;;;;8.73;7.93;;;32.80;62.80;;;;;;5037466;28;20471;-50
2022/07/25 09:34:38;;;;;;;10.90;9.80;;;33.00;61.20;;;;;;5034902;28;20815;-51
2022/07/25 09:37:07;;;;;;;9.77;8.60;;;33.10;62.10;;;;;;5038511;28;20476;-52
2022/07/25 09:39:40;;;;;;;9.00;8.20;;;33.10;60.30;;;;;;5039972;28;20475;-51
2022/07/25 09:42:17;;;;;;;9.80;9.00;;;33.10;60.70;;;;;;5035300;28;20457;-51
2022/07/25 09:44:45;;;;;;;9.13;8.30;;;33.20;59.70;;;;;;5047219;28;20479;-52
2022/07/25 09:47:15;;;;;;;11.50;8.13;;;33.70;59.60;;;;;;5041310;28;21331;-51
2022/07/25 09:49:46;;;;;;;11.67;8.93;;;33.90;58.10;;;;;;5042462;28;20484;-51
2022/07/25 09:52:12;;;;;;;8.90;8.07;;;34.00;58.10;;;;;;5042788;28;20855;-51
2022/07/25 09:54:40;;;;;;;8.03;7.33;;;34.10;57.40;;;;;;5041861;28;20499;-50
2022/07/25 09:57:07;;;;;;;7.97;7.27;;;34.00;57.00;;;;;;5042928;28;20491;-50
2022/07/25 09:59:34;;;;;;;7.30;6.67;;;34.00;56.90;;;;;;5040178;28;20879;-51
2022/07/25 10:02:20;;;;;;;7.77;7.07;;;33.60;57.00;;;;;;5030086;28;20491;-51
2022/07/25 10:04:56;;;;;;;7.80;7.00;;;33.60;56.90;;;;;;5028096;28;20478;-50
2022/07/25 10:07:24;;;;;;;7.87;7.20;;;33.70;57.60;;;;;;5041162;28;20847;-52
2022/07/25 10:09:54;;;;;;;8.50;7.27;;;33.70;57.40;;;;;;5056002;28;20468;-51
2022/07/25 10:12:22;;;;;;;9.40;7.10;;;33.70;56.80;;;;;;5065123;28;20826;-50
2022/07/25 10:15:06;;;;;;;8.10;7.30;;;33.70;57.40;;;;;;5047824;28;20461;-51
2022/07/25 10:17:34;;;;;;;7.50;6.60;;;33.70;57.40;;;;;;5032410;28;20979;-51
2022/07/25 10:20:05;;;;;;;8.87;7.97;;;33.60;57.70;;;;;;5045670;28;21255;-54
2022/07/25 10:22:39;;;;;;;8.83;8.00;;;33.60;57.90;;;;;;5034942;28;20677;-51
2022/07/25 10:25:14;;;;;;;8.53;7.70;;;33.40;58.20;;;;;;5043757;28;20457;-51
2022/07/25 10:27:43;;;;;;;8.50;7.67;;;33.40;58.40;;;;;;5036240;28;20447;-55
2022/07/25 10:30:19;;;;;;;7.60;7.00;;;33.70;58.20;;;;;;5064802;28;20521;-51
2022/07/25 10:32:50;;;;;;;8.60;7.80;;;33.90;58.20;;;;;;5044621;28;20574;-52
2022/07/25 10:35:19;;;;;;;9.30;8.40;;;34.10;58.60;;;;;;5041499;28;20554;-50
2022/07/25 10:37:46;;;;;;;9.47;7.00;;;34.40;58.00;;;;;;5045443;28;20487;-50
2022/07/25 10:40:29;;;;;;;7.93;7.23;;;34.60;58.30;;;;;;5046814;28;21363;-52
2022/07/25 10:43:11;;;;;;;8.47;7.77;;;34.80;57.60;;;;;;5047861;28;21131;-51
2022/07/25 10:45:40;;;;;;;8.57;7.77;;;34.90;57.20;;;;;;5035987;28;20479;-52
2022/07/25 10:48:12;;;;;;;11.30;7.83;;;35.00;56.90;;;;;;5046402;28;20485;-57
2022/07/25 10:50:52;;;;;;;10.57;9.57;;;35.10;58.10;;;;;;5048436;28;20478;-51
2022/07/25 10:53:32;;;;;;;13.00;8.60;;;35.00;56.90;;;;;;5042262;28;20457;-51
2022/07/25 10:56:02;;;;;;;9.23;6.90;;;35.10;57.70;;;;;;5046328;28;20590;-50
2022/07/25 10:58:41;;;;;;;13.20;7.83;;;35.30;58.00;;;;;;5040356;28;20485;-51
2022/07/25 11:01:08;;;;;;;7.93;7.20;;;35.50;58.10;;;;;;5056254;28;20877;-52
2022/07/25 11:03:35;;;;;;;11.67;9.80;;;35.60;55.70;;;;;;5043552;28;20487;-52
2022/07/25 11:06:03;;;;;;;9.80;7.70;;;35.80;55.30;;;;;;5043633;28;20465;-52
2022/07/25 11:08:31;;;;;;;7.53;6.90;;;35.70;55.50;;;;;;5041784;28;21000;-53
2022/07/25 11:10:59;;;;;;;8.40;7.60;;;;;;;;;;5037906;28;20900;-51
2022/07/25 11:13:25;;;;;;;8.80;7.90;;;35.80;54.80;;;;;;5041867;28;20489;-51
2022/07/25 11:15:56;;;;;;;8.30;7.60;;;35.60;54.40;;;;;;5045936;28;20465;-51
2022/07/25 11:18:31;;;;;;;7.17;6.57;;;35.60;55.20;;;;;;5046929;28;20454;-53
2022/07/25 11:20:59;;;;;;;8.80;7.80;;;35.30;54.20;;;;;;5045151;28;20548;-51
2022/07/25 11:23:27;;;;;;;8.17;7.37;;;35.30;54.60;;;;;;5037598;28;20484;-53
2022/07/25 11:26:04;;;;;;;11.37;7.83;;;35.20;54.70;;;;;;5042252;28;21385;-51
2022/07/25 11:28:41;;;;;;;7.30;6.60;;;35.10;55.20;;;;;;5044068;28;20475;-53
2022/07/25 11:31:09;;;;;;;9.77;7.80;;;35.00;55.70;;;;;;5033415;28;20475;-52
2022/07/25 11:33:36;;;;;;;8.70;7.57;;;35.00;56.20;;;;;;5028047;28;20534;-54
2022/07/25 11:36:04;;;;;;;9.37;8.17;;;34.80;56.50;;;;;;5043593;28;20457;-53
2022/07/25 11:38:33;;;;;;;11.30;9.07;;;34.40;57.80;;;;;;5047587;28;20714;-54
2022/07/25 11:40:59;;;;;;;11.03;8.30;;;34.30;57.50;;;;;;5044981;28;21048;-53
2022/07/25 11:43:26;;;;;;;8.97;7.73;;;34.20;58.20;;;;;;5042442;28;20480;-51
2022/07/25 11:45:57;;;;;;;9.63;7.30;;;34.20;58.40;;;;;;5062329;28;20462;-51
2022/07/25 11:48:31;;;;;;;7.03;6.50;;;34.20;58.20;;;;;;5047322;28;21054;-52
2022/07/25 11:50:58;;;;;;;8.40;6.97;;;34.50;57.30;;;;;;5047725;28;20629;-53
2022/07/25 11:53:25;;;;;;;6.97;6.30;;;34.70;56.40;;;;;;5045117;28;20507;-53
2022/07/25 11:55:54;;;;;;;7.47;6.20;;;34.70;56.60;;;;;;5047847;28;20475;-53
2022/07/25 11:58:24;;;;;;;11.57;7.00;;;34.50;56.20;;;;;;5042963;28;20456;-53
2022/07/25 12:00:52;;;;;;;7.20;6.50;;;34.40;55.70;;;;;;5045319;28;20456;-53
2022/07/25 12:03:20;;;;;;;9.80;7.40;;;34.30;56.10;;;;;;5042623;28;20472;-51
2022/07/25 12:05:47;;;;;;;8.93;7.13;;;34.20;56.50;;;;;;5045401;28;20568;-51
2022/07/25 12:08:15;;;;;;;7.70;6.90;;;34.20;57.30;;;;;;5045302;28;20461;-51
2022/07/25 12:10:43;;;;;;;8.07;7.30;;;34.30;57.40;;;;;;5045981;28;20462;-55
2022/07/25 12:13:22;;;;;;;8.60;7.40;;;34.30;56.80;;;;;;5035049;28;20449;-51
2022/07/25 12:15:48;;;;;;;9.20;8.10;;;34.40;56.90;;;;;;5046231;28;20471;-50
2022/07/25 12:18:15;;;;;;;9.70;7.53;;;34.50;56.30;;;;;;5064798;28;20470;-53
2022/07/25 12:20:43;;;;;;;8.43;7.60;;;34.50;56.20;;;;;;5046192;28;20479;-52
2022/07/25 12:23:12;;;;;;;7.70;6.90;;;34.40;55.30;;;;;;5045818;28;20985;-51
2022/07/25 12:25:40;;;;;;;11.73;7.33;;;34.20;56.40;;;;;;5015936;28;21588;-51
2022/07/25 12:28:08;;;;;;;8.87;7.50;;;34.30;56.60;;;;;;5060937;28;20948;-51
2022/07/25 12:30:37;;;;;;;8.87;7.87;;;34.40;57.60;;;;;;5040971;28;20552;-51
2022/07/25 12:33:05;;;;;;;10.90;7.50;;;34.80;56.30;;;;;;5045339;28;20460;-49
2022/07/25 12:35:32;;;;;;;8.83;7.30;;;35.10;55.40;;;;;;5023634;28;20477;-51
2022/07/25 12:37:59;;;;;;;7.50;6.90;;;35.10;55.80;;;;;;5044840;28;20482;-50
2022/07/25 12:40:26;;;;;;;7.23;6.60;;;35.40;54.70;;;;;;5037534;28;21028;-52
2022/07/25 12:42:52;;;;;;;14.30;7.93;;;35.20;54.90;;;;;;5045984;28;20491;-51
2022/07/25 12:45:19;;;;;;;18.00;8.30;;;35.30;54.90;;;;;;5042428;28;20479;-50
2022/07/25 12:47:48;;;;;;;8.90;7.57;;;35.10;55.10;;;;;;5044396;28;20482;-50